sensor_id;sensor_type;location;lat;lon;timestamp;P1;durP1;ratioP1;P2;durP2;ratioP2
13552;SDS011;6847;48.830;9.116;2023-09-08T03:17:01;0.00;;;0.00;;
13552;SDS011;6847;48.830;9.116;2023-09-08T05:03:29;0.10;;;0.10;;
13552;SDS011;6847;48.830;9.116;2023-09-08T05:06:37;0.10;;;0.10;;
13552;SDS011;6847;48.830;9.116;2023-09-08T05:09:24;0.10;;;0.10;;
13552;SDS011;6847;48.830;9.116;2023-09-08T05:12:11;0.10;;;0.10;;
13552;SDS011;6847;48.830;9.116;2023-09-08T05:14:57;0.00;;;0.00;;
13552;SDS011;6847;48.830;9.116;2023-09-08T05:17:52;0.10;;;0.10;;
13552;SDS011;6847;48.830;9.116;2023-09-08T05:20:37;0.10;;;0.10;;
13552;SDS011;6847;48.830;9.116;2023-09-08T05:23:24;0.75;;;0.25;;
13552;SDS011;6847;48.830;9.116;2023-09-08T05:26:12;0.10;;;0.10;;
13552;SDS011;6847;48.830;9.116;2023-09-08T05:29:01;0.10;;;0.10;;
13552;SDS011;6847;48.830;9.116;2023-09-08T05:31:55;0.10;;;0.10;;
13552;SDS011;6847;48.830;9.116;2023-09-08T05:34:42;0.05;;;0.05;;
13552;SDS011;6847;48.830;9.116;2023-09-08T05:37:35;0.10;;;0.10;;
13552;SDS011;6847;48.830;9.116;2023-09-08T05:40:23;0.10;;;0.10;;
13552;SDS011;6847;48.830;9.116;2023-09-08T05:43:10;0.10;;;0.10;;
13552;SDS011;6847;48.830;9.116;2023-09-08T05:45:57;0.00;;;0.00;;
13552;SDS011;6847;48.830;9.116;2023-09-08T05:48:43;0.00;;;0.00;;
13552;SDS011;6847;48.830;9.116;2023-09-08T05:51:32;0.10;;;0.10;;
13552;SDS011;6847;48.830;9.116;2023-09-08T05:54:19;0.10;;;0.10;;
13552;SDS011;6847;48.830;9.116;2023-09-08T05:57:05;0.00;;;0.00;;
13552;SDS011;6847;48.830;9.116;2023-09-08T05:59:52;0.00;;;0.00;;
13552;SDS011;6847;48.830;9.116;2023-09-08T06:02:42;0.00;;;0.00;;
13552;SDS011;6847;48.830;9.116;2023-09-08T06:05:28;0.10;;;0.10;;
13552;SDS011;6847;48.830;9.116;2023-09-08T06:08:24;0.00;;;0.00;;
13552;SDS011;6847;48.830;9.116;2023-09-08T06:11:10;0.10;;;0.10;;
13552;SDS011;6847;48.830;9.116;2023-09-08T06:13:58;0.10;;;0.10;;
13552;SDS011;6847;48.830;9.116;2023-09-08T06:16:43;0.05;;;0.05;;
13552;SDS011;6847;48.830;9.116;2023-09-08T06:19:29;0.10;;;0.10;;
13552;SDS011;6847;48.830;9.116;2023-09-08T06:22:16;0.10;;;0.10;;
13552;SDS011;6847;48.830;9.116;2023-09-08T06:25:05;0.10;;;0.10;;
13552;SDS011;6847;48.830;9.116;2023-09-08T06:27:50;0.10;;;0.10;;
13552;SDS011;6847;48.830;9.116;2023-09-08T06:30:36;0.10;;;0.10;;
13552;SDS011;6847;48.830;9.116;2023-09-08T06:33:25;0.10;;;0.10;;
13552;SDS011;6847;48.830;9.116;2023-09-08T06:36:13;0.00;;;0.00;;
13552;SDS011;6847;48.830;9.116;2023-09-08T06:38:59;0.10;;;0.10;;
13552;SDS011;6847;48.830;9.116;2023-09-08T06:41:49;0.10;;;0.10;;
13552;SDS011;6847;48.830;9.116;2023-09-08T06:44:37;0.10;;;0.10;;
13552;SDS011;6847;48.830;9.116;2023-09-08T06:47:26;0.10;;;0.10;;
13552;SDS011;6847;48.830;9.116;2023-09-08T06:50:11;0.10;;;0.10;;
13552;SDS011;6847;48.830;9.116;2023-09-08T06:52:59;0.10;;;0.10;;
13552;SDS011;6847;48.830;9.116;2023-09-08T06:55:45;0.10;;;0.10;;
13552;SDS011;6847;48.830;9.116;2023-09-08T06:58:36;0.10;;;0.10;;
13552;SDS011;6847;48.830;9.116;2023-09-08T07:01:23;0.10;;;0.10;;
13552;SDS011;6847;48.830;9.116;2023-09-08T07:04:11;0.10;;;0.10;;
13552;SDS011;6847;48.830;9.116;2023-09-08T07:07:04;0.10;;;0.10;;
13552;SDS011;6847;48.830;9.116;2023-09-08T07:09:50;0.10;;;0.10;;
13552;SDS011;6847;48.830;9.116;2023-09-08T07:12:41;0.10;;;0.10;;
13552;SDS011;6847;48.830;9.116;2023-09-08T07:15:28;0.10;;;0.10;;
13552;SDS011;6847;48.830;9.116;2023-09-08T07:18:13;0.10;;;0.10;;
13552;SDS011;6847;48.830;9.116;2023-09-08T07:21:00;0.28;;;0.28;;
13552;SDS011;6847;48.830;9.116;2023-09-08T07:23:47;0.10;;;0.10;;
13552;SDS011;6847;48.830;9.116;2023-09-08T07:26:35;0.15;;;0.15;;
13552;SDS011;6847;48.830;9.116;2023-09-08T07:29:25;0.28;;;0.28;;
13552;SDS011;6847;48.830;9.116;2023-09-08T07:32:12;0.10;;;0.10;;
13552;SDS011;6847;48.830;9.116;2023-09-08T07:34:57;0.10;;;0.10;;
13552;SDS011;6847;48.830;9.116;2023-09-08T07:37:45;0.52;;;0.52;;
13552;SDS011;6847;48.830;9.116;2023-09-08T07:40:31;0.20;;;0.20;;
13552;SDS011;6847;48.830;9.116;2023-09-08T07:43:17;0.10;;;0.10;;
13552;SDS011;6847;48.830;9.116;2023-09-08T07:46:08;0.20;;;0.20;;
13552;SDS011;6847;48.830;9.116;2023-09-08T07:48:57;0.20;;;0.20;;
13552;SDS011;6847;48.830;9.116;2023-09-08T07:51:45;0.20;;;0.20;;
13552;SDS011;6847;48.830;9.116;2023-09-08T07:54:31;0.15;;;0.15;;
13552;SDS011;6847;48.830;9.116;2023-09-08T07:57:17;0.38;;;0.38;;
13552;SDS011;6847;48.830;9.116;2023-09-08T08:00:05;0.20;;;0.20;;
13552;SDS011;6847;48.830;9.116;2023-09-08T08:02:56;0.20;;;0.20;;
13552;SDS011;6847;48.830;9.116;2023-09-08T08:05:43;0.20;;;0.20;;
13552;SDS011;6847;48.830;9.116;2023-09-08T08:08:29;0.20;;;0.20;;
13552;SDS011;6847;48.830;9.116;2023-09-08T08:11:14;0.20;;;0.20;;
13552;SDS011;6847;48.830;9.116;2023-09-08T08:14:01;0.20;;;0.20;;
13552;SDS011;6847;48.830;9.116;2023-09-08T08:16:50;0.28;;;0.28;;
13552;SDS011;6847;48.830;9.116;2023-09-08T08:19:33;0.30;;;0.30;;
13552;SDS011;6847;48.830;9.116;2023-09-08T08:22:22;0.20;;;0.20;;
13552;SDS011;6847;48.830;9.116;2023-09-08T08:25:10;0.13;;;0.13;;
13552;SDS011;6847;48.830;9.116;2023-09-08T08:27:56;0.30;;;0.30;;
13552;SDS011;6847;48.830;9.116;2023-09-08T08:30:45;0.32;;;0.32;;
13552;SDS011;6847;48.830;9.116;2023-09-08T08:33:32;0.20;;;0.20;;
13552;SDS011;6847;48.830;9.116;2023-09-08T08:36:18;0.20;;;0.20;;
13552;SDS011;6847;48.830;9.116;2023-09-08T08:39:05;0.22;;;0.22;;
13552;SDS011;6847;48.830;9.116;2023-09-08T08:41:52;0.20;;;0.20;;
13552;SDS011;6847;48.830;9.116;2023-09-08T08:44:38;0.20;;;0.20;;
13552;SDS011;6847;48.830;9.116;2023-09-08T08:47:25;0.52;;;0.52;;
13552;SDS011;6847;48.830;9.116;2023-09-08T08:50:12;0.20;;;0.20;;
13552;SDS011;6847;48.830;9.116;2023-09-08T08:52:58;0.20;;;0.20;;
13552;SDS011;6847;48.830;9.116;2023-09-08T08:55:45;0.20;;;0.20;;
13552;SDS011;6847;48.830;9.116;2023-09-08T08:58:33;0.20;;;0.20;;
13552;SDS011;6847;48.830;9.116;2023-09-08T09:01:18;0.20;;;0.20;;
13552;SDS011;6847;48.830;9.116;2023-09-08T09:04:08;0.20;;;0.20;;
13552;SDS011;6847;48.830;9.116;2023-09-08T09:06:57;0.60;;;0.60;;
13552;SDS011;6847;48.830;9.116;2023-09-08T09:09:45;0.30;;;0.30;;
13552;SDS011;6847;48.830;9.116;2023-09-08T09:12:32;0.30;;;0.30;;
13552;SDS011;6847;48.830;9.116;2023-09-08T09:15:27;0.25;;;0.25;;
13552;SDS011;6847;48.830;9.116;2023-09-08T09:18:15;0.20;;;0.20;;
13552;SDS011;6847;48.830;9.116;2023-09-08T09:21:01;0.20;;;0.20;;
13552;SDS011;6847;48.830;9.116;2023-09-08T09:23:46;0.40;;;0.40;;
13552;SDS011;6847;48.830;9.116;2023-09-08T09:26:32;0.22;;;0.22;;
13552;SDS011;6847;48.830;9.116;2023-09-08T09:29:19;0.35;;;0.35;;
13552;SDS011;6847;48.830;9.116;2023-09-08T09:32:05;0.30;;;0.30;;
13552;SDS011;6847;48.830;9.116;2023-09-08T09:34:52;0.30;;;0.30;;
13552;SDS011;6847;48.830;9.116;2023-09-08T09:37:40;0.40;;;0.40;;
13552;SDS011;6847;48.830;9.116;2023-09-08T09:40:27;0.28;;;0.28;;
13552;SDS011;6847;48.830;9.116;2023-09-08T09:43:15;0.30;;;0.30;;
13552;SDS011;6847;48.830;9.116;2023-09-08T09:46:07;0.20;;;0.20;;
13552;SDS011;6847;48.830;9.116;2023-09-08T09:48:53;0.32;;;0.32;;
13552;SDS011;6847;48.830;9.116;2023-09-08T09:51:40;0.30;;;0.30;;
13552;SDS011;6847;48.830;9.116;2023-09-08T09:54:27;0.30;;;0.30;;
13552;SDS011;6847;48.830;9.116;2023-09-08T09:57:14;0.28;;;0.28;;
13552;SDS011;6847;48.830;9.116;2023-09-08T10:00:00;0.32;;;0.32;;
13552;SDS011;6847;48.830;9.116;2023-09-08T10:02:50;0.30;;;0.30;;
13552;SDS011;6847;48.830;9.116;2023-09-08T10:05:38;0.30;;;0.30;;
13552;SDS011;6847;48.830;9.116;2023-09-08T10:08:23;0.20;;;0.20;;
13552;SDS011;6847;48.830;9.116;2023-09-08T10:11:09;0.30;;;0.30;;
13552;SDS011;6847;48.830;9.116;2023-09-08T10:13:59;0.30;;;0.30;;
13552;SDS011;6847;48.830;9.116;2023-09-08T10:16:46;0.30;;;0.30;;
13552;SDS011;6847;48.830;9.116;2023-09-08T10:19:37;0.40;;;0.40;;
13552;SDS011;6847;48.830;9.116;2023-09-08T10:22:26;0.30;;;0.30;;
13552;SDS011;6847;48.830;9.116;2023-09-08T10:25:16;0.32;;;0.32;;
13552;SDS011;6847;48.830;9.116;2023-09-08T10:28:05;0.40;;;0.40;;
13552;SDS011;6847;48.830;9.116;2023-09-08T10:30:53;0.30;;;0.30;;
13552;SDS011;6847;48.830;9.116;2023-09-08T10:33:39;0.70;;;0.70;;
13552;SDS011;6847;48.830;9.116;2023-09-08T10:36:27;0.40;;;0.40;;
13552;SDS011;6847;48.830;9.116;2023-09-08T10:42:24;0.40;;;0.40;;
13552;SDS011;6847;48.830;9.116;2023-09-08T10:45:14;0.40;;;0.40;;
13552;SDS011;6847;48.830;9.116;2023-09-08T10:48:02;0.30;;;0.30;;
13552;SDS011;6847;48.830;9.116;2023-09-08T10:50:53;0.35;;;0.35;;
13552;SDS011;6847;48.830;9.116;2023-09-08T10:53:40;0.30;;;0.30;;
13552;SDS011;6847;48.830;9.116;2023-09-08T10:56:29;0.30;;;0.30;;
13552;SDS011;6847;48.830;9.116;2023-09-08T10:59:39;0.30;;;0.30;;
13552;SDS011;6847;48.830;9.116;2023-09-08T11:02:35;0.30;;;0.30;;
13552;SDS011;6847;48.830;9.116;2023-09-08T11:05:24;0.40;;;0.40;;
13552;SDS011;6847;48.830;9.116;2023-09-08T11:12:30;0.40;;;0.40;;
13552;SDS011;6847;48.830;9.116;2023-09-08T11:15:16;0.30;;;0.30;;
13552;SDS011;6847;48.830;9.116;2023-09-08T11:18:05;0.30;;;0.30;;
13552;SDS011;6847;48.830;9.116;2023-09-08T11:20:51;0.30;;;0.30;;
13552;SDS011;6847;48.830;9.116;2023-09-08T11:23:37;0.20;;;0.20;;
13552;SDS011;6847;48.830;9.116;2023-09-08T11:26:27;0.30;;;0.30;;
13552;SDS011;6847;48.830;9.116;2023-09-08T11:29:13;0.30;;;0.30;;
13552;SDS011;6847;48.830;9.116;2023-09-08T11:31:59;0.32;;;0.32;;
13552;SDS011;6847;48.830;9.116;2023-09-08T11:34:45;0.30;;;0.30;;
13552;SDS011;6847;48.830;9.116;2023-09-08T11:37:34;0.35;;;0.35;;
13552;SDS011;6847;48.830;9.116;2023-09-08T11:40:25;0.30;;;0.30;;
13552;SDS011;6847;48.830;9.116;2023-09-08T11:43:12;0.45;;;0.45;;
13552;SDS011;6847;48.830;9.116;2023-09-08T11:45:58;0.60;;;0.60;;
13552;SDS011;6847;48.830;9.116;2023-09-08T11:48:46;0.40;;;0.40;;
13552;SDS011;6847;48.830;9.116;2023-09-08T11:51:31;0.30;;;0.30;;
13552;SDS011;6847;48.830;9.116;2023-09-08T11:54:21;0.40;;;0.40;;
13552;SDS011;6847;48.830;9.116;2023-09-08T11:57:08;0.40;;;0.40;;
13552;SDS011;6847;48.830;9.116;2023-09-08T11:59:57;0.38;;;0.38;;
13552;SDS011;6847;48.830;9.116;2023-09-08T12:02:45;0.40;;;0.40;;
13552;SDS011;6847;48.830;9.116;2023-09-08T12:05:30;0.40;;;0.40;;
13552;SDS011;6847;48.830;9.116;2023-09-08T12:08:16;0.30;;;0.30;;
13552;SDS011;6847;48.830;9.116;2023-09-08T12:11:03;0.45;;;0.45;;
13552;SDS011;6847;48.830;9.116;2023-09-08T12:13:49;0.40;;;0.40;;
13552;SDS011;6847;48.830;9.116;2023-09-08T12:16:38;0.40;;;0.40;;
13552;SDS011;6847;48.830;9.116;2023-09-08T12:19:31;0.40;;;0.40;;
13552;SDS011;6847;48.830;9.116;2023-09-08T12:22:21;0.32;;;0.32;;
13552;SDS011;6847;48.830;9.116;2023-09-08T12:25:07;0.30;;;0.30;;
13552;SDS011;6847;48.830;9.116;2023-09-08T12:27:53;0.30;;;0.30;;
13552;SDS011;6847;48.830;9.116;2023-09-08T12:30:39;0.40;;;0.40;;
13552;SDS011;6847;48.830;9.116;2023-09-08T12:33:27;0.30;;;0.30;;
13552;SDS011;6847;48.830;9.116;2023-09-08T12:36:13;0.45;;;0.45;;
13552;SDS011;6847;48.830;9.116;2023-09-08T12:39:00;0.25;;;0.25;;
13552;SDS011;6847;48.830;9.116;2023-09-08T12:41:48;0.32;;;0.32;;
13552;SDS011;6847;48.830;9.116;2023-09-08T12:44:34;0.40;;;0.40;;
13552;SDS011;6847;48.830;9.116;2023-09-08T12:47:19;0.35;;;0.35;;
13552;SDS011;6847;48.830;9.116;2023-09-08T12:50:07;0.40;;;0.40;;
13552;SDS011;6847;48.830;9.116;2023-09-08T12:52:54;0.40;;;0.40;;
13552;SDS011;6847;48.830;9.116;2023-09-08T12:55:42;0.50;;;0.50;;
13552;SDS011;6847;48.830;9.116;2023-09-08T12:58:28;0.40;;;0.40;;
13552;SDS011;6847;48.830;9.116;2023-09-08T13:01:14;0.60;;;0.60;;
13552;SDS011;6847;48.830;9.116;2023-09-08T13:04:02;0.40;;;0.40;;
13552;SDS011;6847;48.830;9.116;2023-09-08T13:06:50;0.52;;;0.52;;
13552;SDS011;6847;48.830;9.116;2023-09-08T13:09:36;0.47;;;0.47;;
13552;SDS011;6847;48.830;9.116;2023-09-08T13:12:22;0.45;;;0.45;;
13552;SDS011;6847;48.830;9.116;2023-09-08T13:15:11;2.85;;;0.60;;
13552;SDS011;6847;48.830;9.116;2023-09-08T13:17:57;0.40;;;0.40;;
13552;SDS011;6847;48.830;9.116;2023-09-08T13:20:43;0.50;;;0.50;;
13552;SDS011;6847;48.830;9.116;2023-09-08T13:23:29;0.70;;;0.70;;
13552;SDS011;6847;48.830;9.116;2023-09-08T13:26:15;0.30;;;0.30;;
13552;SDS011;6847;48.830;9.116;2023-09-08T13:29:00;0.52;;;0.50;;
13552;SDS011;6847;48.830;9.116;2023-09-08T13:31:47;0.40;;;0.40;;
13552;SDS011;6847;48.830;9.116;2023-09-08T13:34:34;0.40;;;0.40;;
13552;SDS011;6847;48.830;9.116;2023-09-08T13:37:21;0.52;;;0.52;;
13552;SDS011;6847;48.830;9.116;2023-09-08T13:40:09;0.40;;;0.40;;
13552;SDS011;6847;48.830;9.116;2023-09-08T13:42:54;0.50;;;0.50;;
13552;SDS011;6847;48.830;9.116;2023-09-08T13:45:40;0.52;;;0.52;;
13552;SDS011;6847;48.830;9.116;2023-09-08T13:48:26;0.60;;;0.60;;
13552;SDS011;6847;48.830;9.116;2023-09-08T13:51:12;0.40;;;0.40;;
13552;SDS011;6847;48.830;9.116;2023-09-08T13:54:01;0.60;;;0.60;;
13552;SDS011;6847;48.830;9.116;2023-09-08T13:56:56;0.57;;;0.57;;
13552;SDS011;6847;48.830;9.116;2023-09-08T13:59:46;0.43;;;0.43;;
13552;SDS011;6847;48.830;9.116;2023-09-08T14:02:34;0.60;;;0.60;;
13552;SDS011;6847;48.830;9.116;2023-09-08T14:05:20;0.55;;;0.55;;
13552;SDS011;6847;48.830;9.116;2023-09-08T14:08:05;0.50;;;0.50;;
13552;SDS011;6847;48.830;9.116;2023-09-08T14:10:55;0.50;;;0.50;;
13552;SDS011;6847;48.830;9.116;2023-09-08T14:13:42;0.50;;;0.50;;
13552;SDS011;6847;48.830;9.116;2023-09-08T14:16:27;0.70;;;0.70;;
13552;SDS011;6847;48.830;9.116;2023-09-08T14:19:13;0.60;;;0.60;;
13552;SDS011;6847;48.830;9.116;2023-09-08T14:22:02;0.50;;;0.50;;
13552;SDS011;6847;48.830;9.116;2023-09-08T14:24:48;0.70;;;0.70;;
13552;SDS011;6847;48.830;9.116;2023-09-08T14:27:34;0.60;;;0.60;;
13552;SDS011;6847;48.830;9.116;2023-09-08T14:30:21;0.80;;;0.80;;
13552;SDS011;6847;48.830;9.116;2023-09-08T14:33:07;0.70;;;0.70;;
13552;SDS011;6847;48.830;9.116;2023-09-08T14:35:53;0.80;;;0.80;;
13552;SDS011;6847;48.830;9.116;2023-09-08T14:38:39;0.50;;;0.50;;
13552;SDS011;6847;48.830;9.116;2023-09-08T14:41:24;0.60;;;0.60;;
13552;SDS011;6847;48.830;9.116;2023-09-08T14:44:09;0.70;;;0.70;;
13552;SDS011;6847;48.830;9.116;2023-09-08T14:46:57;0.70;;;0.70;;
13552;SDS011;6847;48.830;9.116;2023-09-08T14:49:43;0.70;;;0.70;;
13552;SDS011;6847;48.830;9.116;2023-09-08T14:52:29;0.60;;;0.60;;
13552;SDS011;6847;48.830;9.116;2023-09-08T14:55:16;0.60;;;0.60;;
13552;SDS011;6847;48.830;9.116;2023-09-08T14:58:03;0.60;;;0.60;;
13552;SDS011;6847;48.830;9.116;2023-09-08T15:00:49;0.80;;;0.80;;
13552;SDS011;6847;48.830;9.116;2023-09-08T15:03:45;0.80;;;0.80;;
13552;SDS011;6847;48.830;9.116;2023-09-08T15:06:30;0.60;;;0.60;;
13552;SDS011;6847;48.830;9.116;2023-09-08T15:09:16;0.60;;;0.60;;
13552;SDS011;6847;48.830;9.116;2023-09-08T15:12:02;0.65;;;0.65;;
13552;SDS011;6847;48.830;9.116;2023-09-08T15:14:49;0.75;;;0.75;;
13552;SDS011;6847;48.830;9.116;2023-09-08T15:17:36;0.80;;;0.80;;
13552;SDS011;6847;48.830;9.116;2023-09-08T15:20:26;0.70;;;0.70;;
13552;SDS011;6847;48.830;9.116;2023-09-08T15:23:11;0.80;;;0.80;;
13552;SDS011;6847;48.830;9.116;2023-09-08T15:25:59;0.80;;;0.80;;
13552;SDS011;6847;48.830;9.116;2023-09-08T15:28:45;0.50;;;0.50;;
13552;SDS011;6847;48.830;9.116;2023-09-08T15:31:32;0.40;;;0.40;;
13552;SDS011;6847;48.830;9.116;2023-09-08T15:34:17;0.57;;;0.57;;
13552;SDS011;6847;48.830;9.116;2023-09-08T15:37:08;0.63;;;0.63;;
13552;SDS011;6847;48.830;9.116;2023-09-08T15:39:58;0.60;;;0.60;;
13552;SDS011;6847;48.830;9.116;2023-09-08T15:42:45;0.40;;;0.40;;
13552;SDS011;6847;48.830;9.116;2023-09-08T15:45:32;0.57;;;0.57;;
13552;SDS011;6847;48.830;9.116;2023-09-08T15:48:18;0.60;;;0.60;;
13552;SDS011;6847;48.830;9.116;2023-09-08T15:51:03;0.55;;;0.55;;
13552;SDS011;6847;48.830;9.116;2023-09-08T15:53:52;0.40;;;0.40;;
13552;SDS011;6847;48.830;9.116;2023-09-08T15:56:39;0.50;;;0.50;;
13552;SDS011;6847;48.830;9.116;2023-09-08T15:59:28;0.60;;;0.60;;
13552;SDS011;6847;48.830;9.116;2023-09-08T16:02:14;0.50;;;0.50;;
13552;SDS011;6847;48.830;9.116;2023-09-08T16:04:59;0.50;;;0.50;;
13552;SDS011;6847;48.830;9.116;2023-09-08T16:07:45;0.52;;;0.52;;
13552;SDS011;6847;48.830;9.116;2023-09-08T16:10:33;0.40;;;0.40;;
13552;SDS011;6847;48.830;9.116;2023-09-08T16:13:20;0.55;;;0.55;;
13552;SDS011;6847;48.830;9.116;2023-09-08T16:16:05;0.40;;;0.40;;
13552;SDS011;6847;48.830;9.116;2023-09-08T16:18:51;0.40;;;0.40;;
13552;SDS011;6847;48.830;9.116;2023-09-08T16:21:38;0.50;;;0.50;;
13552;SDS011;6847;48.830;9.116;2023-09-08T16:24:27;0.60;;;0.60;;
13552;SDS011;6847;48.830;9.116;2023-09-08T16:27:14;0.43;;;0.43;;
13552;SDS011;6847;48.830;9.116;2023-09-08T16:30:00;0.40;;;0.40;;
13552;SDS011;6847;48.830;9.116;2023-09-08T16:32:46;0.50;;;0.50;;
13552;SDS011;6847;48.830;9.116;2023-09-08T16:35:31;0.40;;;0.40;;
13552;SDS011;6847;48.830;9.116;2023-09-08T16:38:19;0.40;;;0.40;;
13552;SDS011;6847;48.830;9.116;2023-09-08T16:41:04;0.40;;;0.40;;
13552;SDS011;6847;48.830;9.116;2023-09-08T16:43:51;0.30;;;0.30;;
13552;SDS011;6847;48.830;9.116;2023-09-08T16:46:38;0.40;;;0.40;;
13552;SDS011;6847;48.830;9.116;2023-09-08T16:49:29;0.40;;;0.40;;
13552;SDS011;6847;48.830;9.116;2023-09-08T16:52:15;0.25;;;0.25;;
13552;SDS011;6847;48.830;9.116;2023-09-08T16:55:02;0.20;;;0.20;;
13552;SDS011;6847;48.830;9.116;2023-09-08T16:57:55;0.20;;;0.20;;
13552;SDS011;6847;48.830;9.116;2023-09-08T17:00:45;0.30;;;0.30;;
13552;SDS011;6847;48.830;9.116;2023-09-08T17:03:31;0.30;;;0.30;;
13552;SDS011;6847;48.830;9.116;2023-09-08T17:06:17;0.20;;;0.20;;
13552;SDS011;6847;48.830;9.116;2023-09-08T17:09:06;0.20;;;0.20;;
13552;SDS011;6847;48.830;9.116;2023-09-08T17:11:53;0.10;;;0.10;;
13552;SDS011;6847;48.830;9.116;2023-09-08T17:14:39;0.20;;;0.20;;
13552;SDS011;6847;48.830;9.116;2023-09-08T17:17:28;0.30;;;0.30;;
13552;SDS011;6847;48.830;9.116;2023-09-08T17:20:15;0.20;;;0.20;;
13552;SDS011;6847;48.830;9.116;2023-09-08T17:23:05;0.20;;;0.20;;
13552;SDS011;6847;48.830;9.116;2023-09-08T17:25:51;0.15;;;0.15;;
13552;SDS011;6847;48.830;9.116;2023-09-08T17:28:37;0.20;;;0.20;;
13552;SDS011;6847;48.830;9.116;2023-09-08T17:31:24;0.20;;;0.20;;
13552;SDS011;6847;48.830;9.116;2023-09-08T17:34:18;0.10;;;0.10;;
13552;SDS011;6847;48.830;9.116;2023-09-08T17:37:07;0.10;;;0.10;;
13552;SDS011;6847;48.830;9.116;2023-09-08T17:39:53;0.25;;;0.25;;
13552;SDS011;6847;48.830;9.116;2023-09-08T17:42:39;0.20;;;0.20;;
13552;SDS011;6847;48.830;9.116;2023-09-08T17:45:25;0.10;;;0.10;;
13552;SDS011;6847;48.830;9.116;2023-09-08T17:48:10;0.20;;;0.20;;
13552;SDS011;6847;48.830;9.116;2023-09-08T17:50:59;0.20;;;0.20;;
13552;SDS011;6847;48.830;9.116;2023-09-08T17:53:45;0.20;;;0.20;;
13552;SDS011;6847;48.830;9.116;2023-09-08T17:56:33;0.10;;;0.10;;
13552;SDS011;6847;48.830;9.116;2023-09-08T17:59:20;0.10;;;0.10;;
13552;SDS011;6847;48.830;9.116;2023-09-08T18:02:07;0.20;;;0.20;;
13552;SDS011;6847;48.830;9.116;2023-09-08T18:04:53;0.10;;;0.10;;
13552;SDS011;6847;48.830;9.116;2023-09-08T18:07:40;0.17;;;0.17;;
13552;SDS011;6847;48.830;9.116;2023-09-08T18:10:28;0.13;;;0.13;;
13552;SDS011;6847;48.830;9.116;2023-09-08T18:13:14;0.10;;;0.10;;
13552;SDS011;6847;48.830;9.116;2023-09-08T18:15:59;0.10;;;0.10;;
13552;SDS011;6847;48.830;9.116;2023-09-08T18:18:44;0.20;;;0.20;;
13552;SDS011;6847;48.830;9.116;2023-09-08T18:21:31;0.10;;;0.10;;
13552;SDS011;6847;48.830;9.116;2023-09-08T18:24:20;0.10;;;0.10;;
13552;SDS011;6847;48.830;9.116;2023-09-08T18:27:07;0.10;;;0.10;;
13552;SDS011;6847;48.830;9.116;2023-09-08T18:29:55;0.17;;;0.17;;
13552;SDS011;6847;48.830;9.116;2023-09-08T18:32:50;0.13;;;0.13;;
13552;SDS011;6847;48.830;9.116;2023-09-08T18:35:39;0.10;;;0.10;;
13552;SDS011;6847;48.830;9.116;2023-09-08T18:38:30;0.10;;;0.10;;
13552;SDS011;6847;48.830;9.116;2023-09-08T18:41:30;0.20;;;0.20;;
13552;SDS011;6847;48.830;9.116;2023-09-08T18:44:21;0.10;;;0.10;;
13552;SDS011;6847;48.830;9.116;2023-09-08T18:47:11;0.10;;;0.10;;
13552;SDS011;6847;48.830;9.116;2023-09-08T18:50:20;0.10;;;0.10;;
13552;SDS011;6847;48.830;9.116;2023-09-08T18:53:27;0.10;;;0.10;;
13552;SDS011;6847;48.830;9.116;2023-09-08T18:56:28;0.20;;;0.20;;
13552;SDS011;6847;48.830;9.116;2023-09-08T18:59:22;0.10;;;0.10;;
13552;SDS011;6847;48.830;9.116;2023-09-08T19:02:13;0.10;;;0.10;;
13552;SDS011;6847;48.830;9.116;2023-09-08T19:05:00;0.10;;;0.10;;
13552;SDS011;6847;48.830;9.116;2023-09-08T19:07:51;0.20;;;0.20;;
13552;SDS011;6847;48.830;9.116;2023-09-08T19:10:37;0.20;;;0.20;;
13552;SDS011;6847;48.830;9.116;2023-09-08T19:13:30;0.10;;;0.10;;
13552;SDS011;6847;48.830;9.116;2023-09-08T19:16:19;0.10;;;0.10;;
13552;SDS011;6847;48.830;9.116;2023-09-08T19:19:22;0.10;;;0.10;;
13552;SDS011;6847;48.830;9.116;2023-09-08T19:22:09;0.10;;;0.10;;
13552;SDS011;6847;48.830;9.116;2023-09-08T19:24:57;0.10;;;0.10;;
13552;SDS011;6847;48.830;9.116;2023-09-08T19:27:51;0.20;;;0.20;;
13552;SDS011;6847;48.830;9.116;2023-09-08T19:33:59;0.10;;;0.10;;
13552;SDS011;6847;48.830;9.116;2023-09-08T19:36:49;0.10;;;0.10;;
13552;SDS011;6847;48.830;9.116;2023-09-08T19:39:37;0.22;;;0.22;;
13552;SDS011;6847;48.830;9.116;2023-09-08T19:42:26;0.10;;;0.10;;
13552;SDS011;6847;48.830;9.116;2023-09-08T19:45:17;0.10;;;0.10;;
13552;SDS011;6847;48.830;9.116;2023-09-08T19:48:12;0.10;;;0.10;;
13552;SDS011;6847;48.830;9.116;2023-09-08T19:51:00;0.10;;;0.10;;
13552;SDS011;6847;48.830;9.116;2023-09-08T19:53:47;0.10;;;0.10;;
13552;SDS011;6847;48.830;9.116;2023-09-08T19:56:38;0.10;;;0.10;;
13552;SDS011;6847;48.830;9.116;2023-09-08T19:59:24;0.10;;;0.10;;
13552;SDS011;6847;48.830;9.116;2023-09-08T20:02:12;0.10;;;0.10;;
13552;SDS011;6847;48.830;9.116;2023-09-08T20:05:00;0.20;;;0.20;;
13552;SDS011;6847;48.830;9.116;2023-09-08T20:07:47;0.10;;;0.10;;
13552;SDS011;6847;48.830;9.116;2023-09-08T20:10:33;0.10;;;0.10;;
13552;SDS011;6847;48.830;9.116;2023-09-08T20:13:23;0.10;;;0.10;;
13552;SDS011;6847;48.830;9.116;2023-09-08T20:16:13;0.10;;;0.10;;
13552;SDS011;6847;48.830;9.116;2023-09-08T20:19:00;0.10;;;0.10;;
13552;SDS011;6847;48.830;9.116;2023-09-08T20:21:48;0.10;;;0.10;;
13552;SDS011;6847;48.830;9.116;2023-09-08T20:24:35;0.10;;;0.10;;
13552;SDS011;6847;48.830;9.116;2023-09-08T20:27:23;0.10;;;0.10;;
13552;SDS011;6847;48.830;9.116;2023-09-08T20:30:08;0.10;;;0.10;;
13552;SDS011;6847;48.830;9.116;2023-09-08T20:32:57;0.10;;;0.10;;
13552;SDS011;6847;48.830;9.116;2023-09-08T20:35:44;0.10;;;0.10;;
13552;SDS011;6847;48.830;9.116;2023-09-08T20:38:35;0.20;;;0.20;;
13552;SDS011;6847;48.830;9.116;2023-09-08T20:41:25;0.10;;;0.10;;
13552;SDS011;6847;48.830;9.116;2023-09-08T20:44:18;0.10;;;0.10;;
13552;SDS011;6847;48.830;9.116;2023-09-08T20:47:05;0.10;;;0.10;;
13552;SDS011;6847;48.830;9.116;2023-09-08T20:49:51;0.10;;;0.10;;
13552;SDS011;6847;48.830;9.116;2023-09-08T20:52:39;0.10;;;0.10;;
13552;SDS011;6847;48.830;9.116;2023-09-08T20:55:28;0.10;;;0.10;;
13552;SDS011;6847;48.830;9.116;2023-09-08T20:58:15;0.10;;;0.10;;
13552;SDS011;6847;48.830;9.116;2023-09-08T21:01:01;0.10;;;0.10;;
13552;SDS011;6847;48.830;9.116;2023-09-08T21:03:49;0.10;;;0.10;;
13552;SDS011;6847;48.830;9.116;2023-09-08T21:06:37;0.10;;;0.10;;
13552;SDS011;6847;48.830;9.116;2023-09-08T21:09:24;0.10;;;0.10;;
13552;SDS011;6847;48.830;9.116;2023-09-08T21:12:13;0.10;;;0.10;;
13552;SDS011;6847;48.830;9.116;2023-09-08T21:14:58;0.10;;;0.10;;
13552;SDS011;6847;48.830;9.116;2023-09-08T21:17:44;0.10;;;0.10;;
13552;SDS011;6847;48.830;9.116;2023-09-08T21:20:30;0.10;;;0.10;;
13552;SDS011;6847;48.830;9.116;2023-09-08T21:23:16;0.10;;;0.10;;
13552;SDS011;6847;48.830;9.116;2023-09-08T21:26:04;0.10;;;0.10;;
13552;SDS011;6847;48.830;9.116;2023-09-08T21:28:52;0.10;;;0.10;;
13552;SDS011;6847;48.830;9.116;2023-09-08T21:31:40;0.10;;;0.10;;
13552;SDS011;6847;48.830;9.116;2023-09-08T21:34:26;0.10;;;0.10;;
13552;SDS011;6847;48.830;9.116;2023-09-08T21:37:15;0.10;;;0.10;;
13552;SDS011;6847;48.830;9.116;2023-09-08T21:40:01;0.10;;;0.10;;
13552;SDS011;6847;48.830;9.116;2023-09-08T21:42:48;0.10;;;0.10;;
13552;SDS011;6847;48.830;9.116;2023-09-08T21:45:37;0.10;;;0.10;;
13552;SDS011;6847;48.830;9.116;2023-09-08T21:48:22;0.10;;;0.10;;
13552;SDS011;6847;48.830;9.116;2023-09-08T21:51:07;0.10;;;0.10;;
13552;SDS011;6847;48.830;9.116;2023-09-08T21:53:54;0.10;;;0.10;;
13552;SDS011;6847;48.830;9.116;2023-09-08T21:56:40;0.10;;;0.10;;
13552;SDS011;6847;48.830;9.116;2023-09-08T21:59:25;0.10;;;0.10;;
13552;SDS011;6847;48.830;9.116;2023-09-08T22:02:15;0.10;;;0.10;;
13552;SDS011;6847;48.830;9.116;2023-09-08T22:05:01;0.10;;;0.10;;
13552;SDS011;6847;48.830;9.116;2023-09-08T22:07:47;0.10;;;0.10;;
13552;SDS011;6847;48.830;9.116;2023-09-08T22:10:33;0.10;;;0.10;;
13552;SDS011;6847;48.830;9.116;2023-09-08T22:13:18;0.10;;;0.10;;
13552;SDS011;6847;48.830;9.116;2023-09-08T22:16:05;0.10;;;0.10;;